createdAt,value
2019-04-20T00:00:16.866Z,0.00
2019-04-20T00:00:56.878Z,0.00
2019-04-20T00:01:58.237Z,0.00
2019-04-20T00:02:59.391Z,0.00
2019-04-20T00:03:55.720Z,0.00
2019-04-20T00:04:56.985Z,0.00
2019-04-20T00:06:17.356Z,0.00
2019-04-20T00:06:56.431Z,0.00
2019-04-20T00:07:57.049Z,0.00
2019-04-20T00:09:03.273Z,0.00
2019-04-20T00:10:03.195Z,0.00
2019-04-20T00:11:04.135Z,0.00
2019-04-20T00:12:25.437Z,0.00
2019-04-20T00:13:10.551Z,0.00
2019-04-20T00:14:03.661Z,0.00
2019-04-20T00:14:56.595Z,0.00
2019-04-20T00:15:55.915Z,0.00
2019-04-20T00:16:56.858Z,0.00
2019-04-20T00:18:17.097Z,0.00
2019-04-20T00:18:59.120Z,0.00
2019-04-20T00:19:57.802Z,0.00
2019-04-20T00:21:00.362Z,0.00
2019-04-20T00:22:01.298Z,0.00
2019-04-20T00:22:57.011Z,0.00
2019-04-20T00:24:24.787Z,0.00
2019-04-20T00:25:03.709Z,0.00
2019-04-20T00:26:06.812Z,0.00
2019-04-20T00:27:13.611Z,0.00
2019-04-20T00:28:11.787Z,0.00
2019-04-20T00:29:19.863Z,0.00
2019-04-20T00:30:43.411Z,0.00
2019-04-20T00:31:12.684Z,0.00
2019-04-20T00:32:06.341Z,0.00
2019-04-20T00:33:07.546Z,0.00
2019-04-20T00:34:07.868Z,0.00
2019-04-20T00:34:56.252Z,0.00
2019-04-20T00:36:18.040Z,0.00
2019-04-20T00:36:56.301Z,0.00
2019-04-20T00:37:57.063Z,0.00
2019-04-20T00:38:59.695Z,0.00
2019-04-20T00:39:57.830Z,0.00
2019-04-20T00:41:03.694Z,0.00
2019-04-20T00:42:19.399Z,0.00
2019-04-20T00:42:58.750Z,0.00
2019-04-20T00:43:57.824Z,0.00
2019-04-20T00:45:05.632Z,0.00
2019-04-20T00:46:04.635Z,0.00
2019-04-20T00:47:08.704Z,0.00
2019-04-20T00:48:31.527Z,0.00
2019-04-20T00:49:10.358Z,0.00
2019-04-20T00:50:05.556Z,0.00
2019-04-20T00:51:20.261Z,0.00
2019-04-20T00:52:24.211Z,0.00
2019-04-20T00:53:07.717Z,0.00
2019-04-20T00:54:18.079Z,0.00
2019-04-20T00:54:58.015Z,0.00
2019-04-20T00:55:57.116Z,0.00
2019-04-20T00:57:12.045Z,0.00
2019-04-20T00:58:08.858Z,0.00
2019-04-20T00:59:09.520Z,0.00
2019-04-20T01:00:31.559Z,0.00
2019-04-20T01:01:12.794Z,0.00
2019-04-20T01:02:15.631Z,0.00
2019-04-20T01:03:15.781Z,0.00
2019-04-20T01:04:15.064Z,0.00
2019-04-20T01:05:15.497Z,0.00
2019-04-20T01:06:31.553Z,0.00
2019-04-20T01:07:11.008Z,0.00
2019-04-20T01:08:01.623Z,0.00
2019-04-20T01:08:57.102Z,0.00
2019-04-20T01:09:58.219Z,0.00
2019-04-20T01:10:59.092Z,0.00
2019-04-20T01:12:24.131Z,0.00
2019-04-20T01:13:01.169Z,0.00
2019-04-20T01:14:02.988Z,0.00
2019-04-20T01:15:02.291Z,0.00
2019-04-20T01:16:05.019Z,0.00
2019-04-20T01:17:05.756Z,0.00
2019-04-20T01:18:17.985Z,0.00
2019-04-20T01:18:56.976Z,0.00
2019-04-20T01:19:57.022Z,0.00
2019-04-20T01:21:00.315Z,0.00
2019-04-20T01:22:03.690Z,0.00
2019-04-20T01:23:01.969Z,0.00
2019-04-20T01:24:26.285Z,0.00
2019-04-20T01:25:06.905Z,0.00
2019-04-20T01:26:04.063Z,0.00
2019-04-20T01:27:00.808Z,0.00
2019-04-20T01:28:14.989Z,0.00
2019-04-20T01:29:08.716Z,0.00
2019-04-20T01:30:24.893Z,0.00
2019-04-20T01:31:10.047Z,0.00
2019-04-20T01:32:10.488Z,0.00
2019-04-20T01:33:14.421Z,0.00
2019-04-20T01:34:06.315Z,0.00
2019-04-20T01:35:10.009Z,0.00
2019-04-20T01:36:36.800Z,0.00
2019-04-20T01:37:13.105Z,0.00
2019-04-20T01:38:18.192Z,0.00
2019-04-20T01:39:11.192Z,0.00
2019-04-20T01:40:00.748Z,0.00
2019-04-20T01:40:57.354Z,0.00
2019-04-20T01:42:19.178Z,0.00
2019-04-20T01:42:57.371Z,0.00
2019-04-20T01:43:58.463Z,0.00
2019-04-20T01:44:58.686Z,0.00
2019-04-20T01:46:07.260Z,0.00
2019-04-20T01:47:01.480Z,0.00
2019-04-20T01:48:25.506Z,0.00
2019-04-20T01:48:59.930Z,0.00
2019-04-20T01:50:05.844Z,0.00
2019-04-20T01:51:05.554Z,0.00
2019-04-20T01:52:09.614Z,0.00
2019-04-20T01:53:10.276Z,0.00
2019-04-20T01:54:33.995Z,0.00
2019-04-20T01:55:19.637Z,0.00
2019-04-20T01:56:15.416Z,0.00
2019-04-20T01:57:09.417Z,0.00
2019-04-20T01:58:19.438Z,0.00
2019-04-20T01:59:17.463Z,0.00
2019-04-20T02:00:26.418Z,0.00
2019-04-20T02:00:59.234Z,0.00
2019-04-20T02:02:03.189Z,0.00
2019-04-20T02:03:01.360Z,0.00
2019-04-20T02:04:00.173Z,0.00
2019-04-20T02:05:06.116Z,0.00
2019-04-20T02:06:21.666Z,0.00
2019-04-20T02:07:00.440Z,0.00
2019-04-20T02:07:59.048Z,0.00
2019-04-20T02:09:04.180Z,0.00
2019-04-20T02:10:02.845Z,0.00
2019-04-20T02:11:00.948Z,0.00
2019-04-20T02:12:24.216Z,0.00
2019-04-20T02:13:02.588Z,0.00
2019-04-20T02:14:02.378Z,0.00
2019-04-20T02:15:02.929Z,0.00
2019-04-20T02:16:04.266Z,0.00
2019-04-20T02:17:08.627Z,0.00
2019-04-20T02:18:31.833Z,0.00
2019-04-20T02:19:16.263Z,0.00
2019-04-20T02:20:15.658Z,0.00
2019-04-20T02:21:15.145Z,0.00
2019-04-20T02:22:12.661Z,0.00
2019-04-20T02:23:10.675Z,0.00
2019-04-20T02:24:19.639Z,0.00
2019-04-20T02:24:59.443Z,0.00
2019-04-20T02:25:58.800Z,0.00
2019-04-20T02:26:58.092Z,0.00
2019-04-20T02:28:17.582Z,0.00
2019-04-20T02:29:24.523Z,0.00
2019-04-20T02:30:57.592Z,0.00
2019-04-20T02:31:42.833Z,0.00
2019-04-20T02:32:32.310Z,0.00
2019-04-20T02:34:33.972Z,0.00
2019-04-20T02:35:30.136Z,0.00
2019-04-20T02:37:36.240Z,0.00
2019-04-20T02:38:39.272Z,0.00
2019-04-20T02:40:39.345Z,0.00
2019-04-20T02:41:36.094Z,0.00
2019-04-20T02:43:09.463Z,0.00
2019-04-20T02:43:40.485Z,0.00
2019-04-20T02:44:35.695Z,0.00
2019-04-20T02:45:35.936Z,0.00
2019-04-20T02:46:34.629Z,0.00
2019-04-20T02:48:54.509Z,0.00
2019-04-20T02:49:35.388Z,0.00
2019-04-20T02:50:29.897Z,0.00
2019-04-20T02:51:33.500Z,0.00
2019-04-20T02:53:44.880Z,0.00
2019-04-20T02:54:54.904Z,0.00
2019-04-20T02:56:40.250Z,0.00
2019-04-20T02:57:33.038Z,0.00
2019-04-20T02:58:38.880Z,0.00
2019-04-20T03:00:42.668Z,0.00
2019-04-20T03:01:20.193Z,0.00
2019-04-20T03:02:16.930Z,0.00
2019-04-20T03:03:11.293Z,0.00
2019-04-20T03:04:04.568Z,0.00
2019-04-20T03:05:13.386Z,0.00
2019-04-20T03:06:33.033Z,0.00
2019-04-20T03:07:14.912Z,0.00
2019-04-20T03:08:17.667Z,0.00
2019-04-20T03:09:24.335Z,0.00
2019-04-20T03:10:17.304Z,0.00
2019-04-20T03:11:20.931Z,0.00
2019-04-20T03:12:57.070Z,0.00
2019-04-20T03:13:18.553Z,0.00
2019-04-20T03:14:18.649Z,0.00
2019-04-20T03:15:22.603Z,0.00
2019-04-20T03:16:17.755Z,0.00
2019-04-20T03:17:21.655Z,0.00
2019-04-20T03:18:40.927Z,0.00
2019-04-20T03:19:17.365Z,0.00
2019-04-20T03:20:24.214Z,0.00
2019-04-20T03:21:27.006Z,0.00
2019-04-20T03:22:21.353Z,0.00
2019-04-20T03:23:29.839Z,0.00
2019-04-20T03:24:44.267Z,0.00
2019-04-20T03:26:21.414Z,0.00
2019-04-20T03:27:15.789Z,0.00
2019-04-20T03:28:18.307Z,0.00
2019-04-20T03:29:13.982Z,0.00
2019-04-20T03:33:30.937Z,0.00
2019-04-20T03:35:28.583Z,0.00
2019-04-20T03:36:46.937Z,0.00
2019-04-20T03:37:28.888Z,0.00
2019-04-20T03:38:21.966Z,0.00
2019-04-20T03:39:19.013Z,0.00
2019-04-20T03:40:12.576Z,0.00
2019-04-20T03:41:08.191Z,0.00
2019-04-20T03:42:20.319Z,0.00
2019-04-20T03:42:59.289Z,0.00
2019-04-20T03:44:04.060Z,0.00
2019-04-20T03:45:05.971Z,0.00
2019-04-20T03:46:05.556Z,0.00
2019-04-20T03:47:04.656Z,0.00
2019-04-20T03:48:35.924Z,0.00
2019-04-20T03:49:21.373Z,0.00
2019-04-20T03:50:25.027Z,0.00
2019-04-20T03:51:28.013Z,0.00
2019-04-20T03:52:19.214Z,0.00
2019-04-20T03:53:19.549Z,0.00
2019-04-20T03:54:34.613Z,0.00
2019-04-20T03:55:16.083Z,0.00
2019-04-20T03:56:22.823Z,0.00
2019-04-20T03:57:22.390Z,0.00
2019-04-20T03:58:19.818Z,0.00
2019-04-20T03:59:11.703Z,0.00
2019-04-20T04:00:36.460Z,0.00
2019-04-20T04:01:27.360Z,0.00
2019-04-20T04:02:34.763Z,0.00
2019-04-20T04:03:29.037Z,0.00
2019-04-20T04:04:25.294Z,0.00
2019-04-20T04:05:19.317Z,0.00
2019-04-20T04:06:28.731Z,0.00
2019-04-20T04:07:02.855Z,0.00
2019-04-20T04:08:10.669Z,0.00
2019-04-20T04:09:12.255Z,0.00
2019-04-20T04:10:16.527Z,0.00
2019-04-20T04:11:16.327Z,0.00
2019-04-20T04:12:29.741Z,0.00
2019-04-20T04:13:00.955Z,0.00
2019-04-20T04:14:00.794Z,0.00
2019-04-20T04:14:59.898Z,0.00
2019-04-20T04:16:05.113Z,0.00
2019-04-20T04:17:02.614Z,0.00
2019-04-20T04:18:28.046Z,0.00
2019-04-20T04:19:10.030Z,0.00
2019-04-20T04:20:05.102Z,0.00
2019-04-20T04:21:06.248Z,5.63
2019-04-20T04:22:12.257Z,5.63
2019-04-20T04:23:15.029Z,5.63
2019-04-20T04:24:31.574Z,5.63
2019-04-20T04:25:14.283Z,5.63
2019-04-20T04:26:16.084Z,5.63
2019-04-20T04:27:16.231Z,5.63
2019-04-20T04:28:14.820Z,11.25
2019-04-20T04:29:22.749Z,11.25
2019-04-20T04:30:35.467Z,11.25
2019-04-20T04:31:18.327Z,11.25
2019-04-20T04:32:37.217Z,11.25
2019-04-20T04:33:40.009Z,16.88
2019-04-20T04:34:20.680Z,16.88
2019-04-20T04:35:14.153Z,16.88
2019-04-20T04:36:40.522Z,16.88
2019-04-20T04:37:20.553Z,22.50
2019-04-20T04:38:24.086Z,22.50
2019-04-20T04:39:22.834Z,22.50
2019-04-20T04:40:26.556Z,28.13
2019-04-20T04:41:24.244Z,28.13
2019-04-20T04:42:42.677Z,28.13
2019-04-20T04:43:19.862Z,28.13
2019-04-20T04:44:14.519Z,33.75
2019-04-20T04:45:06.198Z,33.75
2019-04-20T04:46:01.587Z,33.75
2019-04-20T04:47:04.704Z,39.38
2019-04-20T04:48:28.354Z,39.38
2019-04-20T04:49:11.755Z,39.38
2019-04-20T04:50:09.595Z,45.00
2019-04-20T04:51:08.609Z,45.00
2019-04-20T04:52:07.172Z,45.00
2019-04-20T04:53:09.370Z,50.63
2019-04-20T04:54:31.635Z,50.63
2019-04-20T04:55:11.262Z,50.63
2019-04-20T04:56:05.816Z,56.25
2019-04-20T04:57:01.136Z,56.25
2019-04-20T04:58:00.476Z,56.25
2019-04-20T04:59:00.491Z,61.88
2019-04-20T05:00:26.187Z,61.88
2019-04-20T05:01:05.676Z,61.88
2019-04-20T05:02:01.783Z,67.50
2019-04-20T05:03:14.524Z,67.50
2019-04-20T05:04:21.457Z,67.50
2019-04-20T05:05:25.729Z,73.13
2019-04-20T05:06:35.552Z,73.13
2019-04-20T05:07:12.817Z,73.13
2019-04-20T05:08:10.165Z,78.75
2019-04-20T05:09:05.248Z,78.75
2019-04-20T05:10:01.220Z,78.75
2019-04-20T05:11:00.750Z,84.38
2019-04-20T05:12:25.325Z,84.38
2019-04-20T05:13:00.827Z,84.38
2019-04-20T05:14:06.657Z,90.00
2019-04-20T05:15:08.007Z,90.00
2019-04-20T05:16:16.865Z,90.00
2019-04-20T05:17:15.483Z,95.63
2019-04-20T05:18:45.162Z,95.63
2019-04-20T05:19:23.784Z,95.63
2019-04-20T05:20:19.043Z,101.25
2019-04-20T05:21:21.700Z,101.25
2019-04-20T05:22:21.820Z,101.25
2019-04-20T05:23:19.414Z,106.88
2019-04-20T05:24:35.666Z,106.88
2019-04-20T05:25:20.321Z,106.88
2019-04-20T05:26:20.430Z,112.50
2019-04-20T05:27:20.797Z,112.50
2019-04-20T05:28:16.855Z,112.50
2019-04-20T05:29:08.433Z,118.13
2019-04-20T05:30:22.418Z,118.13
2019-04-20T05:31:03.623Z,123.75
2019-04-20T05:32:07.875Z,123.75
2019-04-20T05:33:06.457Z,123.75
2019-04-20T05:34:25.546Z,129.38
2019-04-20T05:35:21.510Z,129.38
2019-04-20T05:36:42.766Z,129.38
2019-04-20T05:37:29.813Z,135.00
2019-04-20T05:38:22.952Z,135.00
2019-04-20T05:39:26.798Z,140.63
2019-04-20T05:40:21.926Z,140.63
2019-04-20T05:41:18.756Z,140.63
2019-04-20T05:42:42.974Z,146.25
2019-04-20T05:43:24.688Z,146.25
2019-04-20T05:44:16.869Z,146.25
2019-04-20T05:45:18.160Z,151.88
2019-04-20T05:46:22.135Z,151.88
2019-04-20T05:47:21.390Z,151.88
2019-04-20T05:48:45.854Z,157.50
2019-04-20T05:49:22.136Z,157.50
2019-04-20T05:50:15.584Z,157.50
2019-04-20T05:51:25.535Z,163.13
2019-04-20T05:52:36.395Z,163.13
2019-04-20T05:53:22.095Z,157.50
2019-04-20T05:54:49.264Z,163.13
2019-04-20T05:55:20.977Z,163.13
2019-04-20T05:56:28.807Z,168.75
2019-04-20T05:57:28.715Z,168.75
2019-04-20T05:58:24.596Z,168.75
2019-04-20T05:59:19.163Z,174.38
2019-04-20T06:00:49.718Z,174.38
2019-04-20T06:01:26.904Z,174.38
2019-04-20T06:02:25.055Z,180.00
2019-04-20T06:03:20.363Z,180.00
2019-04-20T06:04:28.737Z,185.63
2019-04-20T06:05:21.925Z,185.63
2019-04-20T06:06:44.720Z,185.63
2019-04-20T06:07:24.990Z,185.63
2019-04-20T06:08:32.066Z,185.63
2019-04-20T06:09:24.012Z,191.25
2019-04-20T06:10:30.429Z,191.25
2019-04-20T06:11:23.481Z,191.25
2019-04-20T06:12:42.716Z,196.88
2019-04-20T06:13:17.385Z,196.88
2019-04-20T06:14:11.007Z,196.88
2019-04-20T06:15:15.538Z,202.50
2019-04-20T06:16:18.360Z,202.50
2019-04-20T06:17:26.577Z,202.50
2019-04-20T06:18:39.096Z,202.50
2019-04-20T06:19:34.299Z,208.13
2019-04-20T06:20:21.787Z,208.13
2019-04-20T06:21:32.573Z,213.75
2019-04-20T06:22:28.538Z,213.75
2019-04-20T06:23:24.543Z,219.38
2019-04-20T06:24:55.276Z,219.38
2019-04-20T06:25:39.626Z,219.38
2019-04-20T06:27:21.569Z,225.00
2019-04-20T06:28:18.114Z,225.00
2019-04-20T06:29:20.490Z,225.00
2019-04-20T06:30:37.212Z,230.63
2019-04-20T06:31:26.478Z,230.63
2019-04-20T06:32:28.632Z,230.63
2019-04-20T06:33:30.604Z,236.25
2019-04-20T06:34:30.232Z,236.25
2019-04-20T06:35:35.063Z,236.25
2019-04-20T06:36:47.268Z,241.88
2019-04-20T06:37:23.237Z,241.88
2019-04-20T06:38:46.609Z,241.88
2019-04-20T06:39:27.796Z,247.50
2019-04-20T06:40:37.093Z,247.50
2019-04-20T06:41:34.991Z,247.50
2019-04-20T06:42:43.987Z,247.50
2019-04-20T06:43:25.498Z,253.13
2019-04-20T06:44:30.854Z,253.13
2019-04-20T06:45:28.155Z,253.13
2019-04-20T06:46:22.684Z,258.75
2019-04-20T06:47:24.647Z,258.75
2019-04-20T06:48:46.124Z,258.75
2019-04-20T06:49:31.749Z,258.75
2019-04-20T06:50:17.280Z,264.38
2019-04-20T06:51:25.048Z,264.38
2019-04-20T06:53:31.889Z,270.00
2019-04-20T06:54:42.161Z,270.00
2019-04-20T06:55:19.840Z,270.00
2019-04-20T06:56:24.686Z,270.00
2019-04-20T06:57:25.495Z,275.63
2019-04-20T06:58:39.042Z,275.63
2019-04-20T06:59:27.566Z,275.63
2019-04-20T07:00:51.623Z,281.25
2019-04-20T07:01:20.147Z,281.25
2019-04-20T07:02:31.401Z,281.25
2019-04-20T07:03:40.649Z,281.25
2019-04-20T07:04:38.306Z,286.88
2019-04-20T07:06:50.422Z,286.88
2019-04-20T07:07:23.900Z,292.50
2019-04-20T07:08:46.875Z,292.50
2019-04-20T07:09:31.108Z,292.50
2019-04-20T07:10:25.176Z,292.50
2019-04-20T07:11:24.067Z,298.13
2019-04-20T07:12:42.020Z,298.13
2019-04-20T07:13:15.130Z,298.13
2019-04-20T07:14:08.362Z,303.75
2019-04-20T07:15:19.857Z,309.38
2019-04-20T07:16:21.493Z,303.75
2019-04-20T07:17:33.436Z,309.38
2019-04-20T07:18:42.554Z,309.38
2019-04-20T07:19:24.136Z,309.38
2019-04-20T07:20:19.105Z,309.38
2019-04-20T07:21:40.554Z,309.38
2019-04-20T07:22:32.127Z,309.38
2019-04-20T07:23:26.888Z,315.00
2019-04-20T07:24:47.216Z,315.00
2019-04-20T07:25:26.296Z,315.00
2019-04-20T07:26:29.201Z,320.63
2019-04-20T07:27:23.028Z,320.63
2019-04-20T07:28:29.138Z,326.25
2019-04-20T07:29:27.271Z,326.25
2019-04-20T07:30:45.165Z,326.25
2019-04-20T07:31:22.994Z,326.25
2019-04-20T07:32:19.331Z,331.88
2019-04-20T07:33:30.074Z,331.88
2019-04-20T07:34:23.388Z,331.88
2019-04-20T07:35:25.084Z,331.88
2019-04-20T07:36:54.061Z,337.50
2019-04-20T07:37:48.308Z,337.50
2019-04-20T07:38:30.870Z,337.50
2019-04-20T07:39:27.966Z,343.13
2019-04-20T07:40:39.994Z,343.13
2019-04-20T07:41:39.782Z,343.13
2019-04-20T07:42:48.021Z,348.75
2019-04-20T07:43:28.077Z,348.75
2019-04-20T07:44:34.274Z,348.75
2019-04-20T07:45:45.959Z,348.75
2019-04-20T07:46:40.930Z,354.38
2019-04-20T07:47:33.073Z,354.38
2019-04-20T07:48:42.596Z,360.00
2019-04-20T07:49:24.445Z,360.00
2019-04-20T07:50:17.346Z,360.00
2019-04-20T07:51:12.507Z,360.00
2019-04-20T07:52:04.004Z,365.63
2019-04-20T07:53:21.388Z,365.63
2019-04-20T07:55:05.986Z,365.63
2019-04-20T07:56:25.656Z,371.25
2019-04-20T07:57:21.054Z,371.25
2019-04-20T07:58:15.671Z,376.88
2019-04-20T07:59:14.038Z,376.88
2019-04-20T08:00:59.259Z,376.88
2019-04-20T08:01:30.160Z,376.88
2019-04-20T08:02:33.793Z,382.50
2019-04-20T08:03:32.068Z,382.50
2019-04-20T08:04:22.625Z,382.50
2019-04-20T08:05:15.207Z,388.13
2019-04-20T08:06:32.009Z,388.13
2019-04-20T08:07:07.396Z,393.75
2019-04-20T08:08:24.157Z,393.75
2019-04-20T08:09:14.722Z,393.75
2019-04-20T08:10:09.133Z,393.75
2019-04-20T08:11:21.596Z,399.38
2019-04-20T08:12:51.612Z,399.38
2019-04-20T08:13:33.372Z,399.38
2019-04-20T08:14:25.926Z,405.00
2019-04-20T08:15:38.095Z,405.00
2019-04-20T08:16:31.073Z,410.63
2019-04-20T08:17:31.435Z,410.63
2019-04-20T08:19:04.177Z,410.63
2019-04-20T08:19:22.759Z,410.63
2019-04-20T08:20:20.519Z,410.63
2019-04-20T08:21:32.719Z,416.25
2019-04-20T08:22:26.735Z,421.88
2019-04-20T08:23:23.640Z,421.88
2019-04-20T08:24:42.943Z,421.88
2019-04-20T08:25:14.190Z,421.88
2019-04-20T08:26:11.020Z,421.88
2019-04-20T08:27:06.562Z,427.50
2019-04-20T08:28:06.367Z,427.50
2019-04-20T08:29:15.446Z,433.13
2019-04-20T08:30:41.319Z,433.13
2019-04-20T08:31:18.118Z,438.75
2019-04-20T08:32:25.515Z,438.75
2019-04-20T08:33:23.181Z,438.75
2019-04-20T08:34:28.188Z,444.38
2019-04-20T08:35:26.856Z,444.38
2019-04-20T08:36:49.207Z,444.38
2019-04-20T08:37:20.600Z,450.00
2019-04-20T08:39:41.161Z,450.00
2019-04-20T08:40:28.323Z,450.00
2019-04-20T08:41:21.920Z,455.63
2019-04-20T08:42:56.972Z,455.63
2019-04-20T08:43:38.220Z,455.63
2019-04-20T08:44:51.458Z,461.25
2019-04-20T08:45:31.403Z,461.25
2019-04-20T08:46:26.839Z,461.25
2019-04-20T08:47:35.280Z,466.88
2019-04-20T08:48:46.741Z,466.88
2019-04-20T08:49:31.039Z,466.88
2019-04-20T08:50:22.491Z,472.50
2019-04-20T08:51:25.775Z,472.50
2019-04-20T08:52:46.894Z,472.50
2019-04-20T08:53:25.940Z,472.50
2019-04-20T08:54:40.477Z,478.13
2019-04-20T08:55:23.492Z,478.13
2019-04-20T08:56:18.565Z,478.13
2019-04-20T08:57:05.054Z,483.75
2019-04-20T08:58:04.546Z,489.38
2019-04-20T08:59:04.423Z,489.38
2019-04-20T09:00:33.355Z,489.38
2019-04-20T09:01:08.325Z,489.38
2019-04-20T09:02:09.008Z,495.00
2019-04-20T09:03:13.205Z,495.00
2019-04-20T09:04:12.473Z,500.63
2019-04-20T09:05:11.673Z,500.63
2019-04-20T09:06:41.395Z,495.00
2019-04-20T09:07:13.193Z,500.63
2019-04-20T09:08:13.514Z,506.25
2019-04-20T09:09:33.165Z,506.25
2019-04-20T09:10:32.447Z,511.88
2019-04-20T09:11:23.260Z,511.88
2019-04-20T09:12:40.554Z,523.13
2019-04-20T09:13:16.044Z,511.88
2019-04-20T09:14:05.928Z,517.50
2019-04-20T09:15:05.883Z,523.13
2019-04-20T09:16:04.688Z,528.75
2019-04-20T09:17:07.983Z,528.75
2019-04-20T09:18:34.335Z,528.75
2019-04-20T09:19:09.474Z,534.38
2019-04-20T09:20:12.664Z,528.75
2019-04-20T09:21:15.473Z,534.38
2019-04-20T09:22:17.305Z,534.38
2019-04-20T09:23:21.323Z,534.38
2019-04-20T09:24:52.778Z,540.00
2019-04-20T09:25:45.911Z,540.00
2019-04-20T09:26:20.196Z,540.00
2019-04-20T09:27:20.736Z,545.63
2019-04-20T09:28:20.075Z,545.63
2019-04-20T09:29:16.882Z,551.25
2019-04-20T09:30:37.305Z,545.63
2019-04-20T09:31:27.002Z,556.88
2019-04-20T09:32:24.699Z,551.25
2019-04-20T09:33:23.345Z,556.88
2019-04-20T09:34:20.385Z,556.88
2019-04-20T09:35:25.127Z,562.50
2019-04-20T09:36:40.815Z,562.50
2019-04-20T09:37:36.822Z,562.50
2019-04-20T09:38:21.877Z,568.13
2019-04-20T09:39:15.050Z,568.13
2019-04-20T09:40:21.649Z,568.13
2019-04-20T09:41:31.720Z,573.75
2019-04-20T09:42:26.187Z,573.75
2019-04-20T09:43:06.536Z,568.13
2019-04-20T09:44:06.688Z,573.75
2019-04-20T09:45:07.566Z,585.00
2019-04-20T09:46:08.233Z,579.38
2019-04-20T09:47:07.361Z,585.00
2019-04-20T09:48:36.868Z,585.00
2019-04-20T09:49:18.349Z,579.38
2019-04-20T09:50:22.590Z,596.25
2019-04-20T09:51:24.753Z,585.00
2019-04-20T09:52:17.017Z,596.25
2019-04-20T09:53:20.916Z,590.63
2019-04-20T09:54:50.017Z,601.88
2019-04-20T09:55:18.369Z,607.50
2019-04-20T09:56:19.843Z,590.63
2019-04-20T09:57:26.801Z,607.50
2019-04-20T09:58:18.103Z,613.13
2019-04-20T09:59:23.165Z,630.00
2019-04-20T10:00:42.125Z,624.38
2019-04-20T10:01:21.400Z,630.00
2019-04-20T10:02:15.130Z,635.63
2019-04-20T10:03:06.643Z,652.50
2019-04-20T10:04:05.608Z,669.38
2019-04-20T10:05:05.634Z,843.75
2019-04-20T10:06:30.735Z,3448.13
2019-04-20T10:07:11.419Z,5895.00
2019-04-20T10:08:08.518Z,7351.88
2019-04-20T10:09:05.740Z,7374.38
2019-04-20T10:10:20.280Z,5951.25
2019-04-20T10:11:05.777Z,7520.63
2019-04-20T10:12:26.754Z,6277.50
2019-04-20T10:13:07.213Z,6873.75
2019-04-20T10:14:06.151Z,6626.25
2019-04-20T10:15:12.421Z,6232.50
2019-04-20T10:16:05.896Z,6637.50
2019-04-20T10:17:05.869Z,6637.50
2019-04-20T10:18:27.968Z,7200.00
2019-04-20T10:19:07.851Z,7666.88
2019-04-20T10:20:11.815Z,7318.13
2019-04-20T10:21:05.962Z,6502.50
2019-04-20T10:22:06.618Z,6378.75
2019-04-20T10:23:06.779Z,6097.50
2019-04-20T10:24:28.419Z,6406.88
2019-04-20T10:25:06.649Z,6772.50
2019-04-20T10:26:06.771Z,6806.25
2019-04-20T10:27:06.314Z,6508.13
2019-04-20T10:28:07.460Z,6367.50
2019-04-20T10:29:06.099Z,6238.13
2019-04-20T10:30:28.158Z,6603.75
2019-04-20T10:31:06.445Z,6637.50
2019-04-20T10:32:07.910Z,6451.88
2019-04-20T10:33:06.203Z,6845.63
2019-04-20T10:34:07.383Z,6592.50
2019-04-20T10:35:06.604Z,7335.00
2019-04-20T10:36:27.784Z,7104.38
2019-04-20T10:37:06.293Z,7115.63
2019-04-20T10:38:07.458Z,6885.00
2019-04-20T10:39:06.614Z,5985.00
2019-04-20T10:40:06.851Z,7301.25
2019-04-20T10:41:13.911Z,6811.88
2019-04-20T10:42:28.134Z,7059.38
2019-04-20T10:43:06.440Z,6716.25
2019-04-20T10:44:07.140Z,6738.75
2019-04-20T10:45:06.497Z,6429.38
2019-04-20T10:46:06.940Z,6406.88
2019-04-20T10:47:07.251Z,5281.88
2019-04-20T10:48:31.079Z,6108.75
2019-04-20T10:49:07.781Z,7031.25
2019-04-20T10:50:07.137Z,6828.75
2019-04-20T10:51:08.209Z,5760.00
2019-04-20T10:52:07.600Z,4978.13
2019-04-20T10:53:07.849Z,5141.25
2019-04-20T10:54:27.724Z,3988.13
2019-04-20T10:55:06.710Z,2531.25
2019-04-20T10:56:07.445Z,1456.88
2019-04-20T10:57:07.815Z,1541.25
2019-04-20T10:58:07.364Z,1462.50
2019-04-20T10:59:07.734Z,905.63
2019-04-20T11:00:27.901Z,866.25
2019-04-20T11:01:07.390Z,860.63
2019-04-20T11:02:07.910Z,843.75
2019-04-20T11:03:08.078Z,843.75
2019-04-20T11:04:08.339Z,832.50
2019-04-20T11:05:06.955Z,826.88
2019-04-20T11:06:28.938Z,855.00
2019-04-20T11:07:08.205Z,826.88
2019-04-20T11:08:08.412Z,832.50
2019-04-20T11:09:07.066Z,826.88
2019-04-20T11:10:14.645Z,826.88
2019-04-20T11:11:14.650Z,815.63
2019-04-20T11:12:28.423Z,815.63
2019-04-20T11:13:07.381Z,826.88
2019-04-20T11:14:15.620Z,832.50
2019-04-20T11:15:08.333Z,832.50
2019-04-20T11:16:08.391Z,832.50
2019-04-20T11:17:08.568Z,832.50
2019-04-20T11:18:29.318Z,838.13
2019-04-20T11:19:07.492Z,838.13
2019-04-20T11:20:07.521Z,855.00
2019-04-20T11:21:07.318Z,843.75
2019-04-20T11:22:08.391Z,849.38
2019-04-20T11:23:08.435Z,849.38
2019-04-20T11:24:28.404Z,855.00
2019-04-20T11:25:08.298Z,855.00
2019-04-20T11:26:08.545Z,860.63
2019-04-20T11:27:07.912Z,871.88
2019-04-20T11:28:08.205Z,871.88
2019-04-20T11:29:08.379Z,877.50
2019-04-20T11:30:29.959Z,871.88
2019-04-20T11:31:08.045Z,877.50
2019-04-20T11:32:07.574Z,888.75
2019-04-20T11:33:07.577Z,888.75
2019-04-20T11:34:08.063Z,894.38
2019-04-20T11:35:15.969Z,894.38
2019-04-20T11:36:28.672Z,888.75
2019-04-20T11:37:08.823Z,900.00
2019-04-20T11:38:10.189Z,888.75
2019-04-20T11:39:09.016Z,894.38
2019-04-20T11:40:08.648Z,916.88
2019-04-20T11:41:17.273Z,911.25
2019-04-20T11:42:29.885Z,900.00
2019-04-20T11:43:07.975Z,894.38
2019-04-20T11:44:07.854Z,905.63
2019-04-20T11:45:08.751Z,894.38
2019-04-20T11:46:09.020Z,894.38
2019-04-20T11:47:08.491Z,894.38
2019-04-20T11:48:29.631Z,894.38
2019-04-20T11:49:07.996Z,894.38
2019-04-20T11:50:09.352Z,900.00
2019-04-20T11:51:07.988Z,911.25
2019-04-20T11:52:08.025Z,905.63
2019-04-20T11:53:09.049Z,911.25
2019-04-20T11:54:30.353Z,911.25
2019-04-20T11:55:08.490Z,900.00
2019-04-20T11:56:14.442Z,905.63
2019-04-20T11:57:09.007Z,916.88
2019-04-20T11:58:08.181Z,916.88
2019-04-20T11:59:09.336Z,905.63
2019-04-20T12:00:29.894Z,916.88
2019-04-20T12:01:13.502Z,900.00
2019-04-20T12:02:10.811Z,916.88
2019-04-20T12:03:16.309Z,916.88
2019-04-20T12:04:20.140Z,922.50
2019-04-20T12:05:21.370Z,905.63
2019-04-20T12:06:30.712Z,905.63
2019-04-20T12:07:08.865Z,894.38
2019-04-20T12:08:09.208Z,900.00
2019-04-20T12:09:08.403Z,888.75
2019-04-20T12:10:13.864Z,905.63
2019-04-20T12:11:23.037Z,916.88
2019-04-20T12:12:37.083Z,888.75
2019-04-20T12:13:09.811Z,905.63
2019-04-20T12:14:08.507Z,883.13
2019-04-20T12:15:08.689Z,894.38
2019-04-20T12:16:09.767Z,894.38
2019-04-20T12:17:08.581Z,894.38
2019-04-20T12:18:29.623Z,900.00
2019-04-20T12:19:08.686Z,888.75
2019-04-20T12:20:08.637Z,877.50
2019-04-20T12:21:08.653Z,883.13
2019-04-20T12:22:09.699Z,866.25
2019-04-20T12:23:08.712Z,871.88
2019-04-20T12:24:31.178Z,883.13
2019-04-20T12:25:09.975Z,866.25
2019-04-20T12:26:08.963Z,877.50
2019-04-20T12:27:08.844Z,866.25
2019-04-20T12:28:09.577Z,877.50
2019-04-20T12:29:09.929Z,855.00
2019-04-20T12:30:30.053Z,877.50
2019-04-20T12:31:11.985Z,871.88
2019-04-20T12:32:09.066Z,849.38
2019-04-20T12:33:09.467Z,866.25
2019-04-20T12:34:08.927Z,860.63
2019-04-20T12:35:08.954Z,855.00
2019-04-20T12:36:30.210Z,855.00
2019-04-20T12:37:09.106Z,849.38
2019-04-20T12:38:10.270Z,860.63
2019-04-20T12:39:09.056Z,855.00
2019-04-20T12:40:09.122Z,855.00
2019-04-20T12:41:11.039Z,860.63
2019-04-20T12:42:30.848Z,849.38
2019-04-20T12:43:09.127Z,855.00
2019-04-20T12:44:09.944Z,849.38
2019-04-20T12:45:09.173Z,849.38
2019-04-20T12:46:09.897Z,838.13
2019-04-20T12:47:10.044Z,849.38
2019-04-20T12:48:31.402Z,866.25
2019-04-20T12:49:09.538Z,855.00
2019-04-20T12:50:09.736Z,849.38
2019-04-20T12:51:09.319Z,838.13
2019-04-20T12:52:10.241Z,843.75
2019-04-20T12:53:10.399Z,849.38
2019-04-20T12:54:30.391Z,838.13
2019-04-20T12:55:10.435Z,838.13
2019-04-20T12:56:10.569Z,838.13
2019-04-20T12:57:10.786Z,838.13
2019-04-20T12:58:10.525Z,843.75
2019-04-20T12:59:09.680Z,838.13
2019-04-20T13:00:30.530Z,843.75
2019-04-20T13:01:10.098Z,838.13